Bacolod, Philippines
Current Conditions -  °F | °C
As of 6:00 PM on Thursday 29 Jan 2015 (Local Time) from RPVM Reporting Station
Few Clouds Few Clouds  
Wind Chill: 82°   Ceiling: Unl
Heat Index: 88°   Visibility: 6mi
Dew Point: 73°   Wind: 14mph
Humidity: 74%   Direction: 20°NNE
Pressure: 29.85"   Gusts: NA
Location:  10.63°N, 122.97°E
Report Text: RPVM 291000Z 02012KT 9999 FEW020 28/23 Q1011 RMK A2985
Loading
Personal Weather Stations






























Interactive Weather Map New forecast layout! Learn more

10-Day Weather Forecast

Advertisements
Track Severe Weather on mobile